Time;durP1;ratioP1;P1;durP2;ratioP2;P2;SDS_P1;SDS_P2;PMS_P1;PMS_P2;Temp;Humidity;BMP_temperature;BMP_pressure;BME280_temperature;BME280_humidity;BME280_pressure;Samples;Min_cycle;Max_cycle;Signal;HPM_P1;HPM_P2
2023/05/03 00:00:45;;;;;;;1.73;1.58;;;;;;;;;;4993763;28;20263;-51
2023/05/03 00:03:12;;;;;;;1.50;1.40;;;;;;;;;;4995773;28;20181;-50
2023/05/03 00:05:38;;;;;;;1.90;1.48;;;;;;;;;;4995207;28;20185;-50
2023/05/03 00:08:04;;;;;;;1.30;1.20;;;;;;;;;;4995500;28;20188;-50
2023/05/03 00:10:30;;;;;;;1.90;1.50;;;;;;;;;;4995511;28;20407;-50
2023/05/03 00:12:56;;;;;;;1.45;1.35;;;;;;;;;;4995164;28;20177;-50
2023/05/03 00:15:22;;;;;;;1.55;1.40;;;;;;;;;;4994882;28;20232;-50
2023/05/03 00:17:48;;;;;;;1.40;1.30;;;;;;;;;;4995226;28;20517;-52
2023/05/03 00:20:14;;;;;;;1.55;1.45;;;;;;;;;;4994923;28;20276;-50
2023/05/03 00:22:40;;;;;;;1.40;1.30;;;;;;;;;;4995342;28;20271;-50
2023/05/03 00:25:07;;;;;;;1.40;1.30;;;;;;;;;;4990824;28;20216;-51
2023/05/03 00:27:33;;;;;;;1.50;1.40;;;;;;;;;;5001582;28;20188;-50
2023/05/03 00:29:59;;;;;;;3.03;1.50;;;;;;;;;;5000583;28;20209;-50
2023/05/03 00:32:25;;;;;;;1.63;1.50;;;;;;;;;;5007251;28;20529;-50
2023/05/03 00:34:55;;;;;;;2.33;1.50;;;;;;;;;;5011868;28;20231;-50
2023/05/03 00:37:21;;;;;;;1.38;1.30;;;;;;;;;;5001153;28;20184;-50
2023/05/03 00:39:47;;;;;;;1.45;1.35;;;;;;;;;;4999979;28;20173;-50
2023/05/03 00:42:13;;;;;;;1.60;1.50;;;;;;;;;;5011377;28;20777;-50
2023/05/03 00:44:38;;;;;;;1.30;1.20;;;;;;;;;;5002663;28;20193;-50
2023/05/03 00:47:05;;;;;;;2.08;1.27;;;;;;;;;;5005658;28;20254;-50
2023/05/03 00:49:31;;;;;;;1.45;1.35;;;;;;;;;;5002265;28;20876;-50
2023/05/03 00:51:58;;;;;;;1.20;1.10;;;;;;;;;;4994519;28;20216;-50
2023/05/03 00:54:24;;;;;;;1.50;1.40;;;;;;;;;;4992667;28;20592;-50
2023/05/03 00:56:50;;;;;;;1.30;1.20;;;;;;;;;;4994672;28;20281;-50
2023/05/03 00:59:16;;;;;;;1.55;1.45;;;;;;;;;;4993248;28;20193;-50
2023/05/03 01:01:42;;;;;;;1.25;1.15;;;;;;;;;;4994404;28;20185;-50
2023/05/03 01:04:08;;;;;;;1.27;1.17;;;;;;;;;;4994394;28;20188;-50
2023/05/03 01:06:40;;;;;;;1.98;1.20;;;;;;;;;;4994962;28;20528;-50
2023/05/03 01:09:11;;;;;;;1.30;1.20;;;;;;;;;;4993109;28;20189;-50
2023/05/03 01:11:37;;;;;;;1.20;1.17;;;;;;;;;;4994620;28;20564;-50
2023/05/03 01:14:22;;;;;;;1.30;1.20;;;;;;;;;;4994042;28;20180;-50
2023/05/03 01:16:52;;;;;;;1.40;1.30;;;;;;;;;;4994060;28;20192;-50
2023/05/03 01:19:26;;;;;;;1.83;1.38;;;;;;;;;;4993481;28;20577;-50
2023/05/03 01:22:03;;;;;;;1.63;1.20;;;;;;;;;;4994950;28;20611;-50
2023/05/03 01:24:31;;;;;;;1.83;1.20;;;;;;;;;;4994254;28;20184;-50
2023/05/03 01:26:58;;;;;;;1.27;1.17;;;;;;;;;;4994471;28;20201;-50
2023/05/03 01:29:24;;;;;;;1.20;1.10;;;;;;;;;;4992330;28;20247;-50
2023/05/03 01:31:52;;;;;;;1.40;1.30;;;;;;;;;;4994049;28;20268;-50
2023/05/03 01:34:18;;;;;;;1.30;1.20;;;;;;;;;;4993332;28;20193;-50
2023/05/03 01:36:45;;;;;;;0.88;0.88;;;;;;;;;;4995125;28;20181;-50
2023/05/03 01:39:17;;;;;;;1.20;1.10;;;;;;;;;;4992025;28;20193;-50
2023/05/03 01:41:44;;;;;;;1.80;1.42;;;;;;;;;;4994582;28;20184;-50
2023/05/03 01:44:10;;;;;;;0.95;0.95;;;;;;;;;;4992546;28;20184;-50
2023/05/03 01:46:43;;;;;;;1.20;1.10;;;;;;;;;;4993195;28;20193;-50
2023/05/03 01:49:09;;;;;;;1.27;1.15;;;;;;;;;;4991516;28;20211;-50
2023/05/03 01:51:35;;;;;;;1.40;1.20;;;;;;;;;;4994390;28;20239;-50
2023/05/03 01:54:01;;;;;;;1.05;1.00;;;;;;;;;;4993680;28;20193;-50
2023/05/03 01:56:27;;;;;;;1.27;1.08;;;;;;;;;;4994680;28;20197;-50
2023/05/03 01:58:53;;;;;;;1.10;1.00;;;;;;;;;;4992834;28;20264;-50
2023/05/03 02:01:19;;;;;;;1.00;0.95;;;;;;;;;;4994149;28;20256;-50
2023/05/03 02:03:45;;;;;;;1.10;1.10;;;;;;;;;;4993552;28;20463;-50
2023/05/03 02:06:11;;;;;;;1.20;1.10;;;;;;;;;;4994584;28;20185;-50
2023/05/03 02:08:37;;;;;;;1.00;1.00;;;;;;;;;;4993545;28;20184;-50
2023/05/03 02:11:02;;;;;;;1.55;1.25;;;;;;;;;;4994260;28;20216;-50
2023/05/03 02:13:28;;;;;;;1.20;1.10;;;;;;;;;;4994561;28;20260;-50
2023/05/03 02:15:54;;;;;;;1.15;1.10;;;;;;;;;;4993985;28;20553;-50
2023/05/03 02:18:21;;;;;;;1.33;1.23;;;;;;;;;;4993472;28;20181;-50
2023/05/03 02:20:47;;;;;;;1.67;1.13;;;;;;;;;;4993737;28;20271;-50
2023/05/03 02:23:13;;;;;;;1.20;1.05;;;;;;;;;;4996039;28;20224;-50
2023/05/03 02:25:39;;;;;;;1.45;1.10;;;;;;;;;;4997935;28;20212;-50
2023/05/03 02:28:05;;;;;;;1.10;1.00;;;;;;;;;;4997370;28;20232;-50
2023/05/03 02:30:32;;;;;;;1.00;1.00;;;;;;;;;;4997052;28;20216;-50
2023/05/03 02:32:58;;;;;;;1.30;1.20;;;;;;;;;;4996901;28;20181;-50
2023/05/03 02:35:25;;;;;;;1.00;1.00;;;;;;;;;;4997578;28;20189;-50
2023/05/03 02:37:51;;;;;;;1.00;1.00;;;;;;;;;;4996568;28;20185;-50
2023/05/03 02:40:17;;;;;;;1.30;1.00;;;;;;;;;;4988189;28;20227;-50
2023/05/03 02:42:42;;;;;;;1.10;1.05;;;;;;;;;;4995198;28;20748;-50
2023/05/03 02:45:08;;;;;;;1.42;1.10;;;;;;;;;;4993862;28;20193;-50
2023/05/03 02:47:34;;;;;;;1.00;1.00;;;;;;;;;;4998554;28;20193;-50
2023/05/03 02:50:00;;;;;;;1.10;0.95;;;;;;;;;;4996370;28;20209;-50
2023/05/03 02:52:26;;;;;;;1.15;1.08;;;;;;;;;;4997287;28;20189;-50
2023/05/03 02:54:52;;;;;;;1.00;0.90;;;;;;;;;;4997436;28;20196;-50
2023/05/03 02:57:18;;;;;;;1.55;0.95;;;;;;;;;;4996396;28;20607;-50
2023/05/03 02:59:44;;;;;;;1.17;1.08;;;;;;;;;;4996217;28;20181;-50
2023/05/03 03:02:10;;;;;;;0.98;0.98;;;;;;;;;;4995605;28;20184;-50
2023/05/03 03:04:36;;;;;;;1.52;1.15;;;;;;;;;;4996485;28;20518;-50
2023/05/03 03:07:02;;;;;;;1.83;1.30;;;;;;;;;;4996354;28;20741;-50
2023/05/03 03:09:28;;;;;;;1.25;1.10;;;;;;;;;;4995745;28;20232;-50
2023/05/03 03:11:54;;;;;;;1.20;1.00;;;;;;;;;;4981361;28;20576;-50
2023/05/03 03:14:20;;;;;;;3.83;1.20;;;;;;;;;;4996671;28;20212;-50
2023/05/03 03:16:46;;;;;;;4.88;1.10;;;;;;;;;;4995611;28;20483;-47
2023/05/03 03:19:12;;;;;;;4.22;1.20;;;;;;;;;;4995454;28;20231;-50
2023/05/03 03:21:38;;;;;;;0.90;0.90;;;;;;;;;;4996588;28;20207;-52
2023/05/03 03:24:04;;;;;;;4.15;1.10;;;;;;;;;;4997047;28;20604;-46
2023/05/03 03:26:30;;;;;;;2.05;1.20;;;;;;;;;;4996721;28;20255;-48
2023/05/03 03:28:55;;;;;;;1.80;1.13;;;;;;;;;;4994670;28;20205;-49
2023/05/03 03:31:22;;;;;;;3.10;1.33;;;;;;;;;;4995667;28;20212;-48
2023/05/03 03:33:48;;;;;;;6.25;1.30;;;;;;;;;;4978969;28;20260;-48
2023/05/03 03:36:14;;;;;;;2.70;1.45;;;;;;;;;;4996414;28;20450;-48
2023/05/03 03:38:40;;;;;;;4.55;1.60;;;;;;;;;;4995650;28;20413;-48
2023/05/03 03:41:06;;;;;;;1.90;1.20;;;;;;;;;;4995730;28;20213;-48
2023/05/03 03:43:32;;;;;;;2.25;1.25;;;;;;;;;;4995705;28;20204;-49
2023/05/03 03:45:59;;;;;;;3.40;1.52;;;;;;;;;;4996867;28;20192;-48
2023/05/03 03:48:25;;;;;;;6.03;2.15;;;;;;;;;;4993160;28;20294;-48
2023/05/03 03:50:51;;;;;;;8.25;2.22;;;;;;;;;;4994742;28;20532;-48
2023/05/03 03:53:17;;;;;;;8.07;2.88;;;;;;;;;;4995175;28;20204;-48
2023/05/03 03:55:43;;;;;;;9.48;2.80;;;;;;;;;;4996154;28;20449;-48
2023/05/03 03:58:09;;;;;;;9.18;2.95;;;;;;;;;;4994675;28;20181;-49
2023/05/03 04:00:35;;;;;;;9.55;3.33;;;;;;;;;;4996455;28;20181;-49
2023/05/03 04:03:01;;;;;;;9.07;3.33;;;;;;;;;;4995683;28;20192;-48
2023/05/03 04:05:27;;;;;;;9.68;3.53;;;;;;;;;;4995528;28;20465;-49
2023/05/03 04:07:53;;;;;;;8.40;3.33;;;;;;;;;;4994541;28;20189;-49
2023/05/03 04:10:18;;;;;;;8.18;3.28;;;;;;;;;;4995376;28;20193;-48
2023/05/03 04:12:44;;;;;;;11.95;3.20;;;;;;;;;;4995899;28;20571;-48
2023/05/03 04:15:11;;;;;;;10.30;3.75;;;;;;;;;;4996448;28;20212;-49
2023/05/03 04:17:37;;;;;;;8.90;3.28;;;;;;;;;;4995403;28;20221;-49
2023/05/03 04:20:06;;;;;;;9.93;3.58;;;;;;;;;;4995002;28;20185;-48
2023/05/03 04:22:32;;;;;;;11.15;3.78;;;;;;;;;;4995400;28;20571;-48
2023/05/03 04:25:01;;;;;;;8.95;3.60;;;;;;;;;;4996215;28;20276;-48
2023/05/03 04:27:27;;;;;;;9.10;3.30;;;;;;;;;;4994573;28;20220;-49
2023/05/03 04:29:53;;;;;;;13.75;3.88;;;;;;;;;;4993969;28;20488;-48
2023/05/03 04:32:22;;;;;;;8.95;3.63;;;;;;;;;;4994833;28;20270;-48
2023/05/03 04:34:49;;;;;;;11.02;3.55;;;;;;;;;;4995567;28;20177;-48
2023/05/03 04:37:15;;;;;;;7.85;3.50;;;;;;;;;;4994640;28;20209;-48
2023/05/03 04:39:40;;;;;;;12.32;4.22;;;;;;;;;;4994240;28;20235;-48
2023/05/03 04:42:07;;;;;;;13.10;3.45;;;;;;;;;;4994871;28;20185;-48
2023/05/03 04:44:33;;;;;;;12.68;4.30;;;;;;;;;;4994735;28;20276;-48
2023/05/03 04:46:59;;;;;;;12.55;3.95;;;;;;;;;;4994577;28;20272;-48
2023/05/03 04:49:25;;;;;;;11.48;3.50;;;;;;;;;;4993165;28;20208;-49
2023/05/03 04:51:51;;;;;;;9.05;3.47;;;;;;;;;;4995448;28;20185;-48
2023/05/03 04:54:17;;;;;;;8.68;3.50;;;;;;;;;;4994750;28;20247;-49
2023/05/03 04:56:43;;;;;;;7.85;3.55;;;;;;;;;;4994701;28;20203;-48
2023/05/03 04:59:09;;;;;;;9.98;3.78;;;;;;;;;;4991745;28;20208;-49
2023/05/03 05:01:35;;;;;;;9.27;3.38;;;;;;;;;;4990209;28;21524;-50
2023/05/03 05:04:01;;;;;;;7.90;3.85;;;;;;;;;;4994997;28;20208;-49
2023/05/03 05:06:27;;;;;;;9.60;4.05;;;;;;;;;;4995072;28;20181;-49
2023/05/03 05:08:53;;;;;;;8.20;3.85;;;;;;;;;;4993206;28;20189;-49
2023/05/03 05:11:19;;;;;;;8.82;3.50;;;;;;;;;;4994562;28;20205;-49
2023/05/03 05:13:45;;;;;;;8.35;3.78;;;;;;;;;;4993233;28;20292;-49
2023/05/03 05:16:11;;;;;;;12.82;3.50;;;;;;;;;;4993450;28;20268;-49
2023/05/03 05:18:37;;;;;;;7.43;3.40;;;;;;;;;;4992900;28;20206;-49
2023/05/03 05:21:03;;;;;;;6.15;2.67;;;;;;;;;;4976404;28;20560;-49
2023/05/03 05:23:29;;;;;;;7.55;3.25;;;;;;;;;;4994078;28;20212;-49
2023/05/03 05:25:59;;;;;;;6.80;3.05;;;;;;;;;;4993847;28;20185;-49
2023/05/03 05:28:25;;;;;;;8.13;3.92;;;;;;;;;;4992716;28;20178;-49
2023/05/03 05:30:51;;;;;;;9.13;3.40;;;;;;;;;;4993621;28;20209;-49
2023/05/03 05:33:17;;;;;;;7.80;3.25;;;;;;;;;;4993855;28;20667;-49
2023/05/03 05:35:44;;;;;;;10.27;3.42;;;;;;;;;;4993955;28;20588;-49
2023/05/03 05:38:11;;;;;;;8.10;3.42;;;;;;;;;;4991934;28;20316;-49
2023/05/03 05:40:37;;;;;;;8.70;3.42;;;;;;;;;;4993020;28;20450;-49
2023/05/03 05:43:03;;;;;;;11.02;3.92;;;;;;;;;;4994126;28;20181;-49
2023/05/03 05:45:29;;;;;;;7.22;3.08;;;;;;;;;;4991607;28;20191;-49
2023/05/03 05:47:55;;;;;;;6.82;3.35;;;;;;;;;;4993013;28;20185;-49
2023/05/03 05:50:21;;;;;;;6.43;3.08;;;;;;;;;;4992375;28;20223;-49
2023/05/03 05:52:51;;;;;;;6.82;3.50;;;;;;;;;;4994508;28;20185;-49
2023/05/03 05:55:17;;;;;;;5.13;3.50;;;;;;;;;;4993429;28;20189;-49
2023/05/03 05:57:43;;;;;;;8.70;3.40;;;;;;;;;;4995000;28;20531;-49
2023/05/03 06:00:13;;;;;;;8.13;3.42;;;;;;;;;;4996651;28;20609;-49
2023/05/03 06:02:39;;;;;;;7.78;3.53;;;;;;;;;;4997223;28;20627;-49
2023/05/03 06:05:05;;;;;;;5.60;2.97;;;;;;;;;;4996959;28;20596;-49
2023/05/03 06:07:31;;;;;;;5.93;3.00;;;;;;;;;;4983617;28;20181;-49
2023/05/03 06:09:57;;;;;;;7.95;3.13;;;;;;;;;;4997161;28;20574;-49
2023/05/03 06:12:23;;;;;;;6.97;3.15;;;;;;;;;;4997796;28;20232;-49
2023/05/03 06:14:49;;;;;;;8.38;3.00;;;;;;;;;;4995227;28;20503;-49
2023/05/03 06:17:16;;;;;;;6.80;3.08;;;;;;;;;;4997184;28;20235;-49
2023/05/03 06:19:42;;;;;;;8.85;2.90;;;;;;;;;;4997117;28;20887;-49
2023/05/03 06:22:07;;;;;;;6.38;2.80;;;;;;;;;;4997886;28;20268;-49
2023/05/03 06:24:33;;;;;;;7.30;3.35;;;;;;;;;;4998055;28;20326;-49
2023/05/03 06:26:59;;;;;;;6.82;2.88;;;;;;;;;;4997750;28;20181;-49
2023/05/03 06:29:27;;;;;;;5.55;2.80;;;;;;;;;;4997768;28;20952;-49
2023/05/03 06:31:53;;;;;;;6.55;2.72;;;;;;;;;;4998247;28;20215;-49
2023/05/03 06:34:20;;;;;;;5.78;3.08;;;;;;;;;;4997817;28;20185;-49
2023/05/03 06:36:46;;;;;;;4.82;2.47;;;;;;;;;;4998184;28;20192;-49
2023/05/03 06:39:12;;;;;;;5.05;2.90;;;;;;;;;;4997094;28;20189;-49
2023/05/03 06:41:38;;;;;;;5.30;2.95;;;;;;;;;;4997881;28;20256;-48
2023/05/03 06:44:05;;;;;;;6.78;2.72;;;;;;;;;;4997617;28;20189;-49
2023/05/03 06:46:31;;;;;;;5.43;3.08;;;;;;;;;;4998033;28;20277;-49
2023/05/03 06:48:57;;;;;;;4.68;2.83;;;;;;;;;;4996814;28;20266;-49
2023/05/03 06:51:27;;;;;;;5.50;2.35;;;;;;;;;;4997379;28;20360;-49
2023/05/03 06:53:55;;;;;;;5.05;2.40;;;;;;;;;;4997649;28;20213;-49
2023/05/03 06:56:21;;;;;;;5.10;2.67;;;;;;;;;;4996818;28;20177;-49
2023/05/03 06:58:47;;;;;;;3.65;2.35;;;;;;;;;;4997491;28;20185;-49
2023/05/03 07:01:13;;;;;;;4.93;2.50;;;;;;;;;;4997340;28;20881;-49
2023/05/03 07:03:39;;;;;;;4.60;2.30;;;;;;;;;;4997330;28;20185;-49
2023/05/03 07:06:05;;;;;;;4.28;2.20;;;;;;;;;;4996931;28;20192;-48
2023/05/03 07:08:31;;;;;;;7.22;2.58;;;;;;;;;;4996789;28;20181;-49
2023/05/03 07:10:57;;;;;;;4.72;2.28;;;;;;;;;;4991884;28;20205;-49
2023/05/03 07:13:23;;;;;;;5.75;2.38;;;;;;;;;;4996715;28;20201;-49
2023/05/03 07:15:49;;;;;;;5.18;2.30;;;;;;;;;;4993943;28;20556;-49
2023/05/03 07:18:15;;;;;;;6.28;2.35;;;;;;;;;;4995610;28;20374;-49
2023/05/03 07:20:40;;;;;;;3.25;2.15;;;;;;;;;;4996271;28;20387;-49
2023/05/03 07:23:06;;;;;;;5.70;2.30;;;;;;;;;;4996369;28;20193;-49
2023/05/03 07:25:33;;;;;;;4.30;2.10;;;;;;;;;;4995945;28;20193;-49
2023/05/03 07:27:59;;;;;;;4.65;2.20;;;;;;;;;;4995258;28;20181;-49
2023/05/03 07:30:25;;;;;;;4.43;2.15;;;;;;;;;;4995147;28;20599;-49
2023/05/03 07:32:51;;;;;;;5.78;2.45;;;;;;;;;;4996120;28;20196;-49
2023/05/03 07:35:18;;;;;;;3.65;2.28;;;;;;;;;;4995295;28;20186;-49
2023/05/03 07:37:44;;;;;;;3.92;2.22;;;;;;;;;;4996330;28;20187;-49
2023/05/03 07:40:11;;;;;;;4.03;2.28;;;;;;;;;;4992590;28;20189;-50
2023/05/03 07:42:37;;;;;;;3.10;2.30;;;;;;;;;;4994790;28;20231;-49
2023/05/03 07:45:03;;;;;;;4.68;2.13;;;;;;;;;;4996106;28;20192;-49
2023/05/03 07:47:29;;;;;;;3.92;2.25;;;;;;;;;;4994562;28;20190;-49
2023/05/03 07:49:55;;;;;;;4.15;2.00;;;;;;;;;;4995649;28;20291;-49
2023/05/03 07:52:21;;;;;;;4.13;2.25;;;;;;;;;;4995000;28;20299;-50
2023/05/03 07:54:47;;;;;;;6.05;2.22;;;;;;;;;;4996001;28;20579;-49
2023/05/03 07:57:13;;;;;;;4.38;2.08;;;;;;;;;;4995541;28;20259;-49
2023/05/03 07:59:39;;;;;;;3.47;2.15;;;;;;;;;;4995098;28;20193;-49
2023/05/03 08:02:05;;;;;;;3.45;2.17;;;;;;;;;;4994986;28;20181;-49
2023/05/03 08:04:31;;;;;;;3.75;1.92;;;;;;;;;;4995723;28;20263;-49
2023/05/03 08:07:00;;;;;;;3.03;1.90;;;;;;;;;;4995638;28;20269;-49
2023/05/03 08:09:27;;;;;;;2.35;1.88;;;;;;;;;;4994106;28;20209;-49
2023/05/03 08:11:52;;;;;;;2.80;2.05;;;;;;;;;;4995675;28;20263;-49
2023/05/03 08:14:18;;;;;;;3.40;2.10;;;;;;;;;;4995952;28;20269;-49
2023/05/03 08:16:44;;;;;;;3.00;1.80;;;;;;;;;;4995805;28;20530;-49
2023/05/03 08:19:10;;;;;;;3.20;1.83;;;;;;;;;;4995439;28;20186;-49
2023/05/03 08:21:36;;;;;;;2.65;1.95;;;;;;;;;;4995395;28;20177;-49
2023/05/03 08:24:05;;;;;;;3.53;1.70;;;;;;;;;;4995995;28;20181;-49
2023/05/03 08:26:31;;;;;;;3.17;1.90;;;;;;;;;;4996309;28;20549;-49
2023/05/03 08:28:57;;;;;;;2.72;1.83;;;;;;;;;;4995124;28;20185;-50
2023/05/03 08:31:23;;;;;;;5.15;2.17;;;;;;;;;;4995647;28;20212;-49
2023/05/03 08:33:49;;;;;;;4.45;1.92;;;;;;;;;;4995551;28;20181;-49
2023/05/03 08:36:15;;;;;;;4.70;2.47;;;;;;;;;;4995728;28;20566;-49
2023/05/03 08:38:41;;;;;;;2.17;1.80;;;;;;;;;;4994455;28;20193;-49
2023/05/03 08:41:16;;;;;;;2.50;1.80;;;;;;;;;;4995567;28;20181;-49
2023/05/03 08:43:44;;;;;;;2.90;1.73;;;;;;;;;;4995095;28;20287;-49
2023/05/03 08:46:12;;;;;;;2.33;1.60;;;;;;;;;;4995906;28;20192;-49
2023/05/03 08:48:38;;;;;;;2.40;1.65;;;;;;;;;;4995112;28;20192;-49
2023/05/03 08:51:04;;;;;;;5.35;2.05;;;;;;;;;;4995418;28;20209;-49
2023/05/03 08:53:30;;;;;;;2.85;1.85;;;;;;;;;;4993074;28;20524;-49
2023/05/03 08:55:56;;;;;;;3.30;2.10;;;;;;;;;;4994182;28;20275;-49
2023/05/03 08:58:22;;;;;;;2.70;1.73;;;;;;;;;;4994545;28;20177;-49
2023/05/03 09:00:48;;;;;;;2.45;1.52;;;;;;;;;;4995454;28;20235;-49
2023/05/03 09:03:14;;;;;;;2.38;1.77;;;;;;;;;;4994810;28;20193;-49
2023/05/03 09:05:42;;;;;;;2.22;1.73;;;;;;;;;;4994161;28;20205;-48
2023/05/03 09:08:10;;;;;;;2.42;1.50;;;;;;;;;;4994777;28;20484;-49
2023/05/03 09:10:40;;;;;;;3.50;1.75;;;;;;;;;;4994708;28;20288;-49
2023/05/03 09:13:06;;;;;;;2.35;1.98;;;;;;;;;;4994737;28;20169;-49
2023/05/03 09:15:33;;;;;;;2.30;1.52;;;;;;;;;;4995260;28;20479;-49
2023/05/03 09:18:18;;;;;;;2.40;1.60;;;;;;;;;;4993392;28;20197;-49
2023/05/03 09:20:50;;;;;;;2.53;1.90;;;;;;;;;;4994824;28;20185;-49
2023/05/03 09:23:17;;;;;;;2.80;1.67;;;;;;;;;;4994416;28;20183;-49
2023/05/03 09:25:44;;;;;;;1.65;1.30;;;;;;;;;;4995096;28;20793;-49
2023/05/03 09:28:10;;;;;;;2.38;1.77;;;;;;;;;;4994423;28;20193;-49
2023/05/03 09:30:36;;;;;;;2.67;1.67;;;;;;;;;;4994972;28;20244;-49
2023/05/03 09:33:03;;;;;;;2.55;1.50;;;;;;;;;;4994553;28;20568;-49
2023/05/03 09:35:29;;;;;;;1.50;1.35;;;;;;;;;;4994994;28;20195;-49
2023/05/03 09:37:55;;;;;;;2.47;1.50;;;;;;;;;;4993175;28;20208;-49
2023/05/03 09:40:21;;;;;;;2.80;1.60;;;;;;;;;;4995227;28;20205;-49
2023/05/03 09:43:10;;;;;;;2.45;1.35;;;;;;;;;;4994283;28;20189;-51
2023/05/03 09:45:36;;;;;;;2.28;1.45;;;;;;;;;;4992447;28;20181;-49
2023/05/03 09:48:03;;;;;;;1.80;1.30;;;;;;;;;;4992654;28;20422;-49
2023/05/03 09:50:31;;;;;;;2.97;1.70;;;;;;;;;;4993778;28;20204;-49
2023/05/03 09:52:59;;;;;;;1.83;1.40;;;;;;;;;;4993674;28;20556;-49
2023/05/03 09:55:26;;;;;;;1.23;1.10;;;;;;;;;;4993673;28;20464;-49
2023/05/03 09:57:53;;;;;;;1.67;1.50;;;;;;;;;;4991955;28;20576;-49
2023/05/03 10:00:20;;;;;;;2.30;1.48;;;;;;;;;;4984917;28;20181;-49
2023/05/03 10:02:48;;;;;;;2.97;1.30;;;;;;;;;;4994438;28;20197;-49
2023/05/03 10:05:16;;;;;;;2.22;1.40;;;;;;;;;;4993116;28;20260;-49
2023/05/03 10:07:43;;;;;;;1.73;1.27;;;;;;;;;;4988038;28;20185;-49
2023/05/03 10:10:09;;;;;;;1.50;1.40;;;;;;;;;;4994280;28;20209;-49
2023/05/03 10:12:35;;;;;;;2.28;1.13;;;;;;;;;;4994483;28;20437;-49
2023/05/03 10:15:03;;;;;;;2.58;1.70;;;;;;;;;;4993486;28;20251;-48
2023/05/03 10:17:32;;;;;;;2.45;1.50;;;;;;;;;;4993063;28;20188;-49
2023/05/03 10:20:05;;;;;;;1.98;1.30;;;;;;;;;;4992936;28;20398;-49
2023/05/03 10:22:31;;;;;;;2.40;1.27;;;;;;;;;;4994035;28;20189;-50
2023/05/03 10:25:00;;;;;;;1.98;1.33;;;;;;;;;;4993424;28;20659;-49
2023/05/03 10:27:42;;;;;;;1.70;1.42;;;;;;;;;;4993804;28;20206;-49
2023/05/03 10:30:08;;;;;;;1.92;1.42;;;;;;;;;;4991456;28;20623;-49
2023/05/03 10:32:40;;;;;;;1.63;1.30;;;;;;;;;;4993518;28;20185;-49
2023/05/03 10:35:10;;;;;;;1.95;1.40;;;;;;;;;;4993493;28;20209;-49
2023/05/03 10:37:37;;;;;;;1.83;1.30;;;;;;;;;;4993043;28;20192;-49
2023/05/03 10:40:21;;;;;;;1.85;1.40;;;;;;;;;;4991456;28;20197;-49
2023/05/03 10:43:05;;;;;;;2.70;1.30;;;;;;;;;;4993052;28;20185;-49
2023/05/03 10:45:32;;;;;;;1.95;1.30;;;;;;;;;;4994740;28;20193;-49
2023/05/03 10:48:19;;;;;;;1.75;1.23;;;;;;;;;;4997223;28;20489;-49
2023/05/03 10:50:45;;;;;;;1.42;1.30;;;;;;;;;;4995860;28;20632;-49
2023/05/03 10:53:32;;;;;;;1.50;1.27;;;;;;;;;;4996283;28;20177;-49
2023/05/03 10:56:03;;;;;;;1.73;1.25;;;;;;;;;;4995658;28;20189;-49
2023/05/03 10:58:30;;;;;;;1.58;1.48;;;;;;;;;;4995573;28;20219;-49
2023/05/03 11:00:56;;;;;;;1.73;1.33;;;;;;;;;;4996232;28;20188;-49
2023/05/03 11:03:34;;;;;;;1.60;1.13;;;;;;;;;;4995240;28;20886;-49
2023/05/03 11:06:02;;;;;;;1.55;1.20;;;;;;;;;;4996552;28;20187;-49
2023/05/03 11:08:36;;;;;;;2.38;1.15;;;;;;;;;;4996467;28;20239;-49
2023/05/03 11:11:06;;;;;;;1.63;1.30;;;;;;;;;;4996210;28;20211;-49
2023/05/03 11:13:32;;;;;;;1.02;1.00;;;;;;;;;;4997039;28;20188;-49
2023/05/03 11:15:58;;;;;;;1.67;1.40;;;;;;;;;;4996071;28;20186;-49
2023/05/03 11:18:28;;;;;;;3.17;1.10;;;;;;;;;;4994860;28;20193;-49
2023/05/03 11:20:55;;;;;;;1.38;1.27;;;;;;;;;;4995378;28;20185;-49
2023/05/03 11:23:28;;;;;;;1.25;1.08;;;;;;;;;;4996033;28;20264;-49
2023/05/03 11:25:55;;;;;;;1.67;1.30;;;;;;;;;;4992828;28;20275;-49
2023/05/03 11:28:21;;;;;;;1.20;1.10;;;;;;;;;;4995438;28;20192;-49
2023/05/03 11:30:47;;;;;;;1.30;1.20;;;;;;;;;;4996090;28;20259;-49
2023/05/03 11:33:13;;;;;;;1.20;1.10;;;;;;;;;;4984641;28;20187;-49
2023/05/03 11:35:40;;;;;;;1.20;1.10;;;;;;;;;;4997289;28;20188;-49
2023/05/03 11:38:07;;;;;;;1.65;1.13;;;;;;;;;;5000124;28;20232;-49
2023/05/03 11:40:32;;;;;;;1.60;1.40;;;;;;;;;;4995247;28;20617;-49
2023/05/03 11:42:59;;;;;;;1.10;1.00;;;;;;;;;;4993135;28;20516;-49
2023/05/03 11:45:26;;;;;;;0.88;0.88;;;;;;;;;;4995019;28;20244;-49
2023/05/03 11:47:52;;;;;;;1.25;1.15;;;;;;;;;;4992705;28;20633;-49
2023/05/03 11:50:18;;;;;;;2.08;1.30;;;;;;;;;;4995969;28;20209;-49
2023/05/03 11:52:45;;;;;;;1.27;1.17;;;;;;;;;;4991147;28;20627;-49
2023/05/03 11:55:11;;;;;;;1.30;1.20;;;;;;;;;;4994514;28;20897;-49
2023/05/03 11:57:37;;;;;;;1.20;1.10;;;;;;;;;;4992899;28;20272;-49
2023/05/03 12:00:13;;;;;;;1.33;1.13;;;;;;;;;;4995132;28;20185;-49
2023/05/03 12:02:39;;;;;;;1.00;0.95;;;;;;;;;;4995521;28;20280;-49
2023/05/03 12:05:06;;;;;;;2.60;1.50;;;;;;;;;;4995475;28;20196;-49
2023/05/03 12:07:32;;;;;;;1.98;1.58;;;;;;;;;;4993472;28;20227;-49
2023/05/03 12:09:59;;;;;;;1.52;1.33;;;;;;;;;;4994048;28;20200;-49
2023/05/03 12:12:25;;;;;;;1.75;1.20;;;;;;;;;;4995699;28;20203;-50
2023/05/03 12:14:56;;;;;;;0.95;0.95;;;;;;;;;;4995405;28;20212;-49
2023/05/03 12:17:35;;;;;;;1.27;1.17;;;;;;;;;;4991581;28;20177;-49
2023/05/03 12:20:17;;;;;;;1.25;1.00;;;;;;;;;;4995151;28;20220;-49
2023/05/03 12:22:43;;;;;;;1.27;1.17;;;;;;;;;;4994707;28;20572;-49
2023/05/03 12:25:09;;;;;;;1.67;1.27;;;;;;;;;;4992668;28;20196;-49
2023/05/03 12:27:35;;;;;;;2.90;1.40;;;;;;;;;;4980551;28;20300;-49
2023/05/03 12:30:01;;;;;;;1.40;1.13;;;;;;;;;;4995706;28;20283;-49
2023/05/03 12:32:27;;;;;;;1.40;1.27;;;;;;;;;;4992926;28;20545;-49
2023/05/03 12:34:56;;;;;;;1.58;1.25;;;;;;;;;;4995131;28;20201;-49
2023/05/03 12:37:21;;;;;;;1.40;1.30;;;;;;;;;;4991096;28;20989;-49
2023/05/03 12:39:47;;;;;;;1.17;1.00;;;;;;;;;;4994925;28;20272;-49
2023/05/03 12:42:13;;;;;;;1.48;1.33;;;;;;;;;;4994173;28;20188;-49
2023/05/03 12:44:40;;;;;;;1.45;1.00;;;;;;;;;;4992910;28;20268;-49
2023/05/03 12:47:06;;;;;;;1.30;1.20;;;;;;;;;;4993969;28;20180;-49
2023/05/03 12:49:33;;;;;;;0.90;0.90;;;;;;;;;;4994489;28;20281;-49
2023/05/03 12:51:59;;;;;;;2.67;1.10;;;;;;;;;;4994630;28;20420;-49
2023/05/03 12:54:25;;;;;;;1.33;1.20;;;;;;;;;;4994387;28;20205;-49
2023/05/03 12:56:51;;;;;;;1.40;0.95;;;;;;;;;;4993371;28;20177;-48
2023/05/03 12:59:17;;;;;;;1.88;1.10;;;;;;;;;;4993572;28;20181;-49
2023/05/03 13:01:43;;;;;;;1.85;1.35;;;;;;;;;;4996530;28;20513;-49
2023/05/03 13:04:10;;;;;;;1.30;1.20;;;;;;;;;;4995257;28;20184;-49
2023/05/03 13:06:37;;;;;;;1.67;1.27;;;;;;;;;;4993471;28;20200;-49
2023/05/03 13:09:04;;;;;;;1.20;1.10;;;;;;;;;;4993836;28;20181;-49
2023/05/03 13:11:31;;;;;;;1.77;0.90;;;;;;;;;;4994627;28;20204;-49
2023/05/03 13:13:57;;;;;;;3.22;1.23;;;;;;;;;;4994140;28;20182;-49
2023/05/03 13:16:24;;;;;;;1.17;1.08;;;;;;;;;;4994688;28;20185;-49
2023/05/03 13:18:54;;;;;;;1.60;1.20;;;;;;;;;;4994288;28;20596;-49
2023/05/03 13:21:20;;;;;;;1.02;0.98;;;;;;;;;;4994300;28;20276;-49
2023/05/03 13:23:46;;;;;;;1.58;1.15;;;;;;;;;;4994818;28;20312;-49
2023/05/03 13:26:12;;;;;;;1.05;1.00;;;;;;;;;;4995245;28;21139;-49
2023/05/03 13:28:40;;;;;;;1.23;1.13;;;;;;;;;;4993615;28;20324;-50
2023/05/03 13:31:06;;;;;;;1.95;1.20;;;;;;;;;;4993654;28;20201;-49
2023/05/03 13:33:36;;;;;;;1.30;1.10;;;;;;;;;;4988736;28;20199;-49
2023/05/03 13:36:02;;;;;;;1.10;1.00;;;;;;;;;;4995009;28;20216;-49
2023/05/03 13:38:28;;;;;;;1.40;1.15;;;;;;;;;;4992072;28;20226;-49
2023/05/03 13:40:54;;;;;;;1.00;0.90;;;;;;;;;;4995065;28;20185;-49
2023/05/03 13:43:20;;;;;;;1.30;1.00;;;;;;;;;;4994007;28;20190;-49
2023/05/03 13:45:46;;;;;;;1.65;1.23;;;;;;;;;;4993074;28;20191;-49
2023/05/03 13:48:12;;;;;;;1.52;1.10;;;;;;;;;;4991138;28;20315;-49
2023/05/03 13:50:38;;;;;;;7.80;1.95;;;;;;;;;;4994744;28;20296;-49
2023/05/03 13:53:04;;;;;;;9.35;2.17;;;;;;;;;;4993647;28;20188;-49
2023/05/03 13:55:30;;;;;;;10.75;1.95;;;;;;;;;;4986503;28;20329;-49
2023/05/03 13:57:57;;;;;;;7.43;2.00;;;;;;;;;;4990122;28;20231;-50
2023/05/03 14:00:23;;;;;;;5.20;1.73;;;;;;;;;;4996049;28;20272;-49
2023/05/03 14:02:50;;;;;;;3.47;1.75;;;;;;;;;;4991371;28;20197;-50
2023/05/03 14:05:18;;;;;;;2.60;1.73;;;;;;;;;;4997462;28;20200;-49
2023/05/03 14:07:44;;;;;;;4.60;2.53;;;;;;;;;;4990602;28;20181;-49
2023/05/03 14:10:10;;;;;;;4.47;1.83;;;;;;;;;;4997349;28;20209;-49
2023/05/03 14:12:36;;;;;;;3.42;1.65;;;;;;;;;;4992053;28;20295;-49
2023/05/03 14:15:06;;;;;;;4.05;1.83;;;;;;;;;;4992537;28;20550;-49
2023/05/03 14:17:33;;;;;;;5.22;1.90;;;;;;;;;;4996551;28;20185;-49
2023/05/03 14:19:58;;;;;;;3.97;1.80;;;;;;;;;;4994306;28;20196;-49
2023/05/03 14:22:25;;;;;;;4.15;1.70;;;;;;;;;;4997599;28;20193;-49
2023/05/03 14:24:51;;;;;;;2.78;1.67;;;;;;;;;;4996886;28;20594;-49
2023/05/03 14:27:20;;;;;;;4.35;2.15;;;;;;;;;;4999703;28;20555;-49
2023/05/03 14:29:46;;;;;;;3.30;1.50;;;;;;;;;;4993806;28;20209;-50
2023/05/03 14:32:12;;;;;;;4.43;1.80;;;;;;;;;;5000672;28;20199;-49
2023/05/03 14:34:38;;;;;;;3.30;1.70;;;;;;;;;;5000846;28;20189;-48
2023/05/03 14:37:04;;;;;;;3.35;1.90;;;;;;;;;;4995028;28;20185;-49
2023/05/03 14:39:30;;;;;;;3.90;1.55;;;;;;;;;;4993938;28;20172;-49
2023/05/03 14:41:56;;;;;;;4.60;1.70;;;;;;;;;;4996492;28;20193;-49